Gardiner, New York
Current Conditions -  °F | °C
As of 5:45 AM on Wednesday 26 Nov 2014 (Local Time) from KSWF Reporting Station
Overcast Overcast  
Wind Chill: 39°   Ceiling: 7000
Heat Index: 39°   Visibility: 10mi
Dew Point: 32°   Wind: 0mph
Humidity: 75%   Direction: NA
Pressure: 30.17"   Gusts: NA
Location:  41.68°N, 74.15°W
Report Text: KSWF 261045Z 00000KT 10SM FEW050 OVC070 04/00 A3017
Loading
Personal Weather Stations






























Interactive Weather Map New forecast layout! Learn more

10-Day Weather Forecast

Advertisements
Track Severe Weather on mobile